CYNR

SPECI CYNR 250040Z AUTO 20005KT 9SM OVC080 20/14 A3006 RMK AO2 SLP183
SPECI
LOCATION
CYNR
DATE - TIME
250040Z
WIND
200 TRUE @ 5 KNOTS
VISIBILITY
9SM
RUNWAY VISUAL RANGE
NOT REPORTED
WEATHER
CLOUDINESS
OVC080
TEMP / DEWPOINT
20 ºC / 14 ºC
ALTIMETER
30.06 in. Hg
RECENT WEATHER
NOT REPORTED
WIND SHEAR
NOT REPORTED
REMARKS
RMK AO2 SLP183
SEA LEVEL PRESSURE: hPa

CYNR

SPECI CYNR 250038Z AUTO 21005KT 9SM -RA OVC080 20/13 A3006 RMK AO2 SLP183
SPECI
LOCATION
CYNR
DATE - TIME
250038Z
WIND
210 TRUE @ 5 KNOTS
VISIBILITY
9SM
RUNWAY VISUAL RANGE
NOT REPORTED
WEATHER
RAIN, NOT FREEZING, SLIGHT
CLOUDINESS
OVC080
TEMP / DEWPOINT
20 ºC / 13 ºC
ALTIMETER
30.06 in. Hg
RECENT WEATHER
NOT REPORTED
WIND SHEAR
NOT REPORTED
REMARKS
RMK AO2 SLP183
SEA LEVEL PRESSURE: hPa

CYNR

SPECI CYNR 250029Z AUTO 18003KT 9SM OVC082 20/14 A3006 RMK AO2 SLP183
SPECI
LOCATION
CYNR
DATE - TIME
250029Z
WIND
180 TRUE @ 3 KNOTS
VISIBILITY
9SM
RUNWAY VISUAL RANGE
NOT REPORTED
WEATHER
CLOUDINESS
OVC082
TEMP / DEWPOINT
20 ºC / 14 ºC
ALTIMETER
30.06 in. Hg
RECENT WEATHER
NOT REPORTED
WIND SHEAR
NOT REPORTED
REMARKS
RMK AO2 SLP183
SEA LEVEL PRESSURE: hPa

Your time UTC time
 
 
Weather data provided by AXYS Technologies Inc., www.axystechnologies.com
 
Station History